RYR159M EDDK-LEPA
Flight info
| Callsign | RYR159M |
|---|---|
| Flight time | 1h 52m |
| Altitude | 35000 |
| Route | NVO2R NVO Y868 NAVAK Z283 SOPOK DCT ROUSY DCT GTQ DCT POGOL DCT LASAT DCT MOROK DCT GILIR DCT GEVEA DCT INCUS DCT BALSI DCT RETNO DCT TUPOX DCT MTG DCT DIVKO DCT VATIR DCT PIVUS DCT BODEQ DCT VERSO L129 LUNIK |
| Aircraft | A320/M-SDE3FGHIRWY/LB1 |
Departure
| Time | 2026-04-20 14:48 |
|---|---|
| Airport | Cologne Bonn Airport (EDDK) |
Arrival
| Time | 2026-04-20 16:40 |
|---|---|
| Airport | Palma de Mallorca Airport (LEPA) |
| Time | Latitude | Longitude | Altitude | Speed | Heading |
|---|---|---|---|---|---|
| 2026-04-20 14:21 | 50.87803 | 7.12425 | 238 ft | 0 kts | 288° |
| 2026-04-20 14:36 | 50.87800 | 7.12441 | 238 ft | 2 kts | 287° |
| 2026-04-20 14:36 | 50.87795 | 7.12464 | 238 ft | 2 kts | 288° |
| 2026-04-20 14:36 | 50.87789 | 7.12486 | 238 ft | 2 kts | 304° |
| 2026-04-20 14:36 | 50.87780 | 7.12504 | 238 ft | 2 kts | 317° |
| 2026-04-20 14:37 | 50.87767 | 7.12519 | 238 ft | 2 kts | 331° |
| 2026-04-20 14:37 | 50.87753 | 7.12528 | 238 ft | 2 kts | 345° |
| 2026-04-20 14:37 | 50.87738 | 7.12531 | 238 ft | 2 kts | 359° |
| 2026-04-20 14:37 | 50.87724 | 7.12529 | 238 ft | 2 kts | 13° |
| 2026-04-20 14:38 | 50.87717 | 7.12526 | 238 ft | 1 kts | 20° |
| 2026-04-20 14:38 | 50.87714 | 7.12525 | 238 ft | 0 kts | 19° |
| 2026-04-20 14:39 | 50.87716 | 7.12525 | 238 ft | 0 kts | 18° |
| 2026-04-20 14:40 | 50.87724 | 7.12530 | 238 ft | 2 kts | 22° |
| 2026-04-20 14:40 | 50.87743 | 7.12550 | 238 ft | 4 kts | 41° |
| 2026-04-20 14:40 | 50.87764 | 7.12605 | 238 ft | 7 kts | 72° |
| 2026-04-20 14:40 | 50.87763 | 7.12701 | 238 ft | 10 kts | 116° |
| 2026-04-20 14:41 | 50.87706 | 7.12794 | 238 ft | 14 kts | 137° |
| 2026-04-20 14:41 | 50.87621 | 7.12915 | 238 ft | 18 kts | 138° |
| 2026-04-20 14:41 | 50.87519 | 7.13063 | 238 ft | 21 kts | 136° |
| 2026-04-20 14:41 | 50.87401 | 7.13235 | 238 ft | 23 kts | 138° |
| 2026-04-20 14:42 | 50.87294 | 7.13389 | 238 ft | 20 kts | 137° |
| 2026-04-20 14:42 | 50.87194 | 7.13534 | 240 ft | 18 kts | 138° |
| 2026-04-20 14:42 | 50.87100 | 7.13669 | 242 ft | 18 kts | 137° |
| 2026-04-20 14:42 | 50.87006 | 7.13805 | 245 ft | 18 kts | 137° |
| 2026-04-20 14:43 | 50.86910 | 7.13945 | 249 ft | 18 kts | 136° |
| 2026-04-20 14:43 | 50.86815 | 7.14081 | 253 ft | 18 kts | 138° |
| 2026-04-20 14:43 | 50.86724 | 7.14154 | 255 ft | 13 kts | 148° |
| 2026-04-20 14:43 | 50.86654 | 7.14252 | 258 ft | 13 kts | 137° |
| 2026-04-20 14:44 | 50.86586 | 7.14352 | 262 ft | 15 kts | 136° |
| 2026-04-20 14:44 | 50.86492 | 7.14488 | 261 ft | 21 kts | 137° |
| 2026-04-20 14:44 | 50.86384 | 7.14643 | 270 ft | 21 kts | 138° |
| 2026-04-20 14:44 | 50.86269 | 7.14810 | 275 ft | 23 kts | 137° |
| 2026-04-20 14:45 | 50.86141 | 7.14996 | 278 ft | 26 kts | 137° |
| 2026-04-20 14:45 | 50.85997 | 7.15205 | 281 ft | 29 kts | 137° |
| 2026-04-20 14:45 | 50.85840 | 7.15431 | 281 ft | 32 kts | 136° |
| 2026-04-20 14:45 | 50.85675 | 7.15672 | 280 ft | 31 kts | 137° |
| 2026-04-20 14:46 | 50.85546 | 7.15857 | 289 ft | 19 kts | 138° |
| 2026-04-20 14:46 | 50.85493 | 7.16017 | 293 ft | 16 kts | 64° |
| 2026-04-20 14:46 | 50.85558 | 7.16137 | 297 ft | 13 kts | 46° |
| 2026-04-20 14:46 | 50.85627 | 7.16253 | 300 ft | 13 kts | 47° |
| 2026-04-20 14:47 | 50.85702 | 7.16306 | 300 ft | 12 kts | 330° |
| 2026-04-20 14:47 | 50.85811 | 7.16156 | 297 ft | 45 kts | 317° |
| 2026-04-20 14:47 | 50.86219 | 7.15559 | 288 ft | 112 kts | 317° |
| 2026-04-20 14:48 | 50.87766 | 7.13305 | 784 ft | 167 kts | 317° |
| 2026-04-20 14:48 | 50.88623 | 7.12032 | 1417 ft | 172 kts | 316° |
| 2026-04-20 14:48 | 50.89490 | 7.10772 | 2135 ft | 171 kts | 319° |
| 2026-04-20 14:48 | 50.90358 | 7.09413 | 2615 ft | 185 kts | 309° |
| 2026-04-20 14:49 | 50.90956 | 7.07528 | 3050 ft | 204 kts | 288° |
| 2026-04-20 14:49 | 50.91081 | 7.05161 | 3466 ft | 228 kts | 263° |
| 2026-04-20 14:49 | 50.90657 | 7.02691 | 4102 ft | 241 kts | 254° |
| 2026-04-20 14:49 | 50.90104 | 7.00125 | 4609 ft | 259 kts | 253° |
| 2026-04-20 14:50 | 50.89497 | 6.97366 | 5253 ft | 270 kts | 253° |
| 2026-04-20 14:50 | 50.88881 | 6.94542 | 6116 ft | 273 kts | 253° |
| 2026-04-20 14:50 | 50.88270 | 6.91716 | 6988 ft | 275 kts | 253° |
| 2026-04-20 14:50 | 50.87652 | 6.88830 | 7842 ft | 278 kts | 253° |
| 2026-04-20 14:51 | 50.87033 | 6.85931 | 8684 ft | 280 kts | 253° |
| 2026-04-20 14:51 | 50.86414 | 6.83031 | 9505 ft | 282 kts | 253° |
| 2026-04-20 14:51 | 50.85782 | 6.80071 | 10322 ft | 285 kts | 253° |
| 2026-04-20 14:51 | 50.85139 | 6.77071 | 10887 ft | 296 kts | 253° |
| 2026-04-20 14:52 | 50.84464 | 6.73917 | 11245 ft | 313 kts | 253° |
| 2026-04-20 14:52 | 50.83746 | 6.70569 | 11586 ft | 330 kts | 253° |
| 2026-04-20 14:52 | 50.83007 | 6.67090 | 12160 ft | 338 kts | 255° |
| 2026-04-20 14:52 | 50.82488 | 6.63478 | 12897 ft | 339 kts | 263° |
| 2026-04-20 14:53 | 50.82300 | 6.59759 | 13621 ft | 340 kts | 271° |
| 2026-04-20 14:53 | 50.82321 | 6.56025 | 14317 ft | 343 kts | 273° |
| 2026-04-20 14:53 | 50.82378 | 6.52244 | 14996 ft | 346 kts | 274° |
| 2026-04-20 14:53 | 50.82438 | 6.48427 | 15626 ft | 351 kts | 273° |
| 2026-04-20 14:54 | 50.82495 | 6.44577 | 16230 ft | 355 kts | 273° |
| 2026-04-20 14:54 | 50.82547 | 6.40624 | 16844 ft | 359 kts | 273° |
| 2026-04-20 14:54 | 50.82595 | 6.36671 | 17435 ft | 363 kts | 273° |
| 2026-04-20 14:54 | 50.82641 | 6.32649 | 18025 ft | 367 kts | 272° |
| 2026-04-20 14:55 | 50.82686 | 6.28610 | 18592 ft | 372 kts | 272° |
| 2026-04-20 14:55 | 50.82731 | 6.24502 | 19143 ft | 376 kts | 272° |
| 2026-04-20 14:55 | 50.82774 | 6.20317 | 19699 ft | 379 kts | 272° |
| 2026-04-20 14:55 | 50.82811 | 6.16155 | 20279 ft | 382 kts | 272° |
| 2026-04-20 14:56 | 50.82850 | 6.11962 | 20853 ft | 384 kts | 272° |
| 2026-04-20 14:56 | 50.82889 | 6.07704 | 21400 ft | 387 kts | 273° |
| 2026-04-20 14:56 | 50.82925 | 6.03452 | 21969 ft | 389 kts | 272° |
| 2026-04-20 14:56 | 50.82891 | 5.99223 | 22492 ft | 392 kts | 269° |
| 2026-04-20 14:57 | 50.82413 | 5.94945 | 22944 ft | 399 kts | 251° |
| 2026-04-20 14:57 | 50.81056 | 5.91119 | 23496 ft | 404 kts | 233° |
| 2026-04-20 14:57 | 50.78989 | 5.88114 | 23998 ft | 411 kts | 215° |
| 2026-04-20 14:57 | 50.76396 | 5.86273 | 24383 ft | 419 kts | 196° |
| 2026-04-20 14:58 | 50.73469 | 5.85840 | 24718 ft | 427 kts | 176° |
| 2026-04-20 14:58 | 50.70554 | 5.86752 | 25079 ft | 432 kts | 168° |
| 2026-04-20 14:58 | 50.67571 | 5.87661 | 25397 ft | 436 kts | 172° |
| 2026-04-20 14:58 | 50.64588 | 5.88408 | 25871 ft | 435 kts | 174° |
| 2026-04-20 14:59 | 50.61606 | 5.89101 | 26283 ft | 436 kts | 174° |
| 2026-04-20 14:59 | 50.58577 | 5.89763 | 26632 ft | 438 kts | 175° |
| 2026-04-20 14:59 | 50.55574 | 5.90391 | 26922 ft | 442 kts | 176° |
| 2026-04-20 14:59 | 50.52520 | 5.91016 | 27211 ft | 445 kts | 176° |
| 2026-04-20 15:00 | 50.49446 | 5.91634 | 27540 ft | 447 kts | 177° |
| 2026-04-20 15:00 | 50.46359 | 5.92251 | 27843 ft | 449 kts | 177° |
| 2026-04-20 15:00 | 50.43220 | 5.92878 | 28133 ft | 452 kts | 178° |
| 2026-04-20 15:00 | 50.40141 | 5.93487 | 28431 ft | 454 kts | 178° |
| 2026-04-20 15:01 | 50.36969 | 5.94119 | 28710 ft | 457 kts | 178° |
| 2026-04-20 15:01 | 50.33826 | 5.94741 | 28987 ft | 459 kts | 179° |
| 2026-04-20 15:01 | 50.30664 | 5.95366 | 29368 ft | 458 kts | 179° |
| 2026-04-20 15:01 | 50.27522 | 5.95987 | 29780 ft | 457 kts | 179° |
| 2026-04-20 15:02 | 50.24355 | 5.96615 | 30157 ft | 456 kts | 180° |
| 2026-04-20 15:02 | 50.21254 | 5.97228 | 30515 ft | 455 kts | 180° |
| 2026-04-20 15:02 | 50.18109 | 5.97842 | 30883 ft | 454 kts | 180° |
| 2026-04-20 15:02 | 50.14988 | 5.98450 | 31235 ft | 453 kts | 180° |
| 2026-04-20 15:03 | 50.11841 | 5.99064 | 31559 ft | 453 kts | 180° |
| 2026-04-20 15:03 | 50.08749 | 5.99669 | 31865 ft | 453 kts | 181° |
| 2026-04-20 15:03 | 50.05597 | 6.00289 | 32195 ft | 452 kts | 181° |
| 2026-04-20 15:03 | 50.02497 | 6.00891 | 32508 ft | 452 kts | 181° |
| 2026-04-20 15:04 | 49.99381 | 6.01502 | 32866 ft | 450 kts | 181° |
| 2026-04-20 15:04 | 49.96288 | 6.02107 | 33215 ft | 447 kts | 181° |
| 2026-04-20 15:04 | 49.93248 | 6.02697 | 33508 ft | 447 kts | 181° |
| 2026-04-20 15:04 | 49.90177 | 6.03287 | 33756 ft | 447 kts | 180° |
| 2026-04-20 15:05 | 49.87090 | 6.03866 | 33986 ft | 447 kts | 180° |
| 2026-04-20 15:05 | 49.83989 | 6.04467 | 34179 ft | 448 kts | 180° |
| 2026-04-20 15:05 | 49.80870 | 6.05083 | 34354 ft | 450 kts | 180° |
| 2026-04-20 15:05 | 49.77799 | 6.05689 | 34517 ft | 451 kts | 180° |
| 2026-04-20 15:06 | 49.74668 | 6.06303 | 34685 ft | 452 kts | 180° |
| 2026-04-20 15:06 | 49.71552 | 6.06907 | 34869 ft | 453 kts | 179° |
| 2026-04-20 15:06 | 49.68460 | 6.07503 | 35039 ft | 453 kts | 179° |
| 2026-04-20 15:07 | 49.62179 | 6.08717 | 35102 ft | 456 kts | 179° |
| 2026-04-20 15:07 | 49.55915 | 6.09919 | 35113 ft | 456 kts | 179° |
| 2026-04-20 15:08 | 49.49614 | 6.11125 | 35113 ft | 457 kts | 179° |
| 2026-04-20 15:08 | 49.43288 | 6.11748 | 35118 ft | 453 kts | 184° |
| 2026-04-20 15:09 | 49.37039 | 6.12074 | 35110 ft | 453 kts | 184° |
| 2026-04-20 15:09 | 49.30731 | 6.12409 | 35113 ft | 453 kts | 184° |
| 2026-04-20 15:10 | 49.24453 | 6.12743 | 35105 ft | 453 kts | 184° |
| 2026-04-20 15:10 | 49.18076 | 6.13079 | 35108 ft | 459 kts | 184° |
| 2026-04-20 15:11 | 49.11697 | 6.13420 | 35097 ft | 461 kts | 184° |
| 2026-04-20 15:11 | 49.05264 | 6.13763 | 35105 ft | 461 kts | 184° |
| 2026-04-20 15:12 | 48.98873 | 6.14102 | 35107 ft | 461 kts | 184° |
| 2026-04-20 15:12 | 48.92461 | 6.14441 | 35095 ft | 461 kts | 184° |
| 2026-04-20 15:13 | 48.86055 | 6.14780 | 35086 ft | 461 kts | 184° |
| 2026-04-20 15:13 | 48.79641 | 6.15122 | 35086 ft | 461 kts | 184° |
| 2026-04-20 15:14 | 48.73257 | 6.15458 | 35080 ft | 461 kts | 184° |
| 2026-04-20 15:14 | 48.66826 | 6.15792 | 35086 ft | 461 kts | 184° |
| 2026-04-20 15:15 | 48.60428 | 6.16125 | 35089 ft | 460 kts | 184° |
| 2026-04-20 15:15 | 48.54029 | 6.16458 | 35079 ft | 460 kts | 184° |
| 2026-04-20 15:16 | 48.47664 | 6.16789 | 35082 ft | 459 kts | 184° |
| 2026-04-20 15:16 | 48.41273 | 6.17119 | 35078 ft | 460 kts | 184° |
| 2026-04-20 15:17 | 48.34884 | 6.17448 | 35081 ft | 461 kts | 184° |
| 2026-04-20 15:17 | 48.28498 | 6.17775 | 35074 ft | 459 kts | 184° |
| 2026-04-20 15:18 | 48.22097 | 6.18105 | 35074 ft | 459 kts | 184° |
| 2026-04-20 15:18 | 48.15765 | 6.18429 | 35075 ft | 459 kts | 184° |
| 2026-04-20 15:19 | 48.09383 | 6.18752 | 35067 ft | 459 kts | 184° |
| 2026-04-20 15:19 | 48.03021 | 6.19077 | 35060 ft | 459 kts | 184° |
| 2026-04-20 15:20 | 47.96607 | 6.19402 | 35068 ft | 459 kts | 184° |
| 2026-04-20 15:20 | 47.90255 | 6.19725 | 35077 ft | 459 kts | 184° |
| 2026-04-20 15:21 | 47.83874 | 6.20050 | 35054 ft | 458 kts | 184° |
| 2026-04-20 15:21 | 47.77511 | 6.20373 | 35054 ft | 458 kts | 184° |
| 2026-04-20 15:22 | 47.71141 | 6.20695 | 35060 ft | 458 kts | 185° |
| 2026-04-20 15:22 | 47.64785 | 6.21014 | 35051 ft | 458 kts | 185° |
| 2026-04-20 15:23 | 47.58459 | 6.21331 | 35046 ft | 459 kts | 185° |
| 2026-04-20 15:23 | 47.52097 | 6.21649 | 35046 ft | 458 kts | 185° |
| 2026-04-20 15:24 | 47.45718 | 6.21967 | 35035 ft | 456 kts | 185° |
| 2026-04-20 15:24 | 47.39374 | 6.22283 | 35038 ft | 457 kts | 185° |
| 2026-04-20 15:25 | 47.33042 | 6.22598 | 35042 ft | 457 kts | 185° |
| 2026-04-20 15:25 | 47.26669 | 6.22913 | 35038 ft | 457 kts | 185° |
| 2026-04-20 15:26 | 47.20334 | 6.23227 | 35027 ft | 457 kts | 185° |
| 2026-04-20 15:26 | 47.14009 | 6.23543 | 35024 ft | 456 kts | 185° |
| 2026-04-20 15:27 | 47.07693 | 6.23800 | 35025 ft | 454 kts | 187° |
| 2026-04-20 15:27 | 47.01427 | 6.23271 | 35004 ft | 448 kts | 193° |
| 2026-04-20 15:28 | 46.95229 | 6.22425 | 35010 ft | 448 kts | 193° |
| 2026-04-20 15:28 | 46.89006 | 6.21590 | 35006 ft | 448 kts | 193° |
| 2026-04-20 15:29 | 46.82822 | 6.20774 | 35007 ft | 448 kts | 192° |
| 2026-04-20 15:29 | 46.76602 | 6.19954 | 35004 ft | 447 kts | 193° |
| 2026-04-20 15:30 | 46.70424 | 6.19135 | 35001 ft | 447 kts | 193° |
| 2026-04-20 15:30 | 46.64245 | 6.18319 | 35006 ft | 447 kts | 193° |
| 2026-04-20 15:31 | 46.58068 | 6.17503 | 35003 ft | 446 kts | 193° |
| 2026-04-20 15:31 | 46.51866 | 6.16688 | 35005 ft | 446 kts | 193° |
| 2026-04-20 15:32 | 46.45705 | 6.15879 | 34998 ft | 446 kts | 193° |
| 2026-04-20 15:32 | 46.39556 | 6.15079 | 34998 ft | 446 kts | 193° |
| 2026-04-20 15:33 | 46.33393 | 6.14258 | 35009 ft | 446 kts | 193° |
| 2026-04-20 15:33 | 46.30294 | 6.13847 | 35123 ft | 448 kts | 193° |
| 2026-04-20 15:33 | 46.27190 | 6.13442 | 35352 ft | 446 kts | 193° |
| 2026-04-20 15:33 | 46.24121 | 6.12922 | 35563 ft | 441 kts | 196° |
| 2026-04-20 15:34 | 46.21092 | 6.12241 | 35769 ft | 439 kts | 197° |
| 2026-04-20 15:34 | 46.18078 | 6.11567 | 35938 ft | 439 kts | 197° |
| 2026-04-20 15:34 | 46.15059 | 6.10893 | 36066 ft | 440 kts | 197° |
| 2026-04-20 15:34 | 46.12073 | 6.10228 | 36189 ft | 440 kts | 196° |
| 2026-04-20 15:35 | 46.09035 | 6.09553 | 36333 ft | 440 kts | 196° |
| 2026-04-20 15:35 | 46.06022 | 6.08888 | 36501 ft | 440 kts | 196° |
| 2026-04-20 15:35 | 46.02998 | 6.08220 | 36667 ft | 439 kts | 196° |
| 2026-04-20 15:35 | 45.99990 | 6.07557 | 36833 ft | 439 kts | 196° |
| 2026-04-20 15:36 | 45.96986 | 6.06893 | 36922 ft | 440 kts | 196° |
| 2026-04-20 15:36 | 45.90923 | 6.05560 | 36994 ft | 441 kts | 196° |
| 2026-04-20 15:37 | 45.84861 | 6.04236 | 36994 ft | 440 kts | 196° |
| 2026-04-20 15:37 | 45.78803 | 6.02897 | 36984 ft | 439 kts | 196° |
| 2026-04-20 15:38 | 45.72760 | 6.01561 | 36983 ft | 439 kts | 196° |
| 2026-04-20 15:38 | 45.66727 | 6.00231 | 36977 ft | 440 kts | 196° |
| 2026-04-20 15:39 | 45.60662 | 5.98899 | 36970 ft | 441 kts | 196° |
| 2026-04-20 15:39 | 45.54609 | 5.97575 | 36960 ft | 440 kts | 196° |
| 2026-04-20 15:40 | 45.48601 | 5.96250 | 36955 ft | 439 kts | 197° |
| 2026-04-20 15:40 | 45.42635 | 5.94467 | 36975 ft | 437 kts | 199° |
| 2026-04-20 15:41 | 45.36709 | 5.92611 | 36986 ft | 437 kts | 199° |
| 2026-04-20 15:41 | 45.30809 | 5.90770 | 36994 ft | 436 kts | 199° |
| 2026-04-20 15:42 | 45.24885 | 5.88927 | 37002 ft | 437 kts | 199° |
| 2026-04-20 15:42 | 45.18948 | 5.87082 | 37009 ft | 437 kts | 199° |
| 2026-04-20 15:43 | 45.13021 | 5.85246 | 37012 ft | 437 kts | 199° |
| 2026-04-20 15:43 | 45.07100 | 5.83414 | 37008 ft | 437 kts | 199° |
| 2026-04-20 15:44 | 45.01137 | 5.81575 | 37013 ft | 436 kts | 199° |
| 2026-04-20 15:44 | 44.95255 | 5.79764 | 37009 ft | 436 kts | 199° |
| 2026-04-20 15:45 | 44.89402 | 5.77965 | 37005 ft | 436 kts | 199° |
| 2026-04-20 15:45 | 44.83484 | 5.76162 | 36990 ft | 436 kts | 199° |
| 2026-04-20 15:46 | 44.77647 | 5.74384 | 36979 ft | 437 kts | 199° |
| 2026-04-20 15:46 | 44.71729 | 5.72580 | 36973 ft | 436 kts | 199° |
| 2026-04-20 15:47 | 44.65804 | 5.70775 | 36968 ft | 435 kts | 199° |
| 2026-04-20 15:47 | 44.59874 | 5.68972 | 36961 ft | 435 kts | 199° |
| 2026-04-20 15:48 | 44.53935 | 5.67170 | 36957 ft | 435 kts | 199° |
| 2026-04-20 15:48 | 44.48051 | 5.65390 | 36954 ft | 435 kts | 199° |
| 2026-04-20 15:49 | 44.42092 | 5.63589 | 36952 ft | 435 kts | 199° |
| 2026-04-20 15:49 | 44.36259 | 5.61325 | 36949 ft | 429 kts | 206° |
| 2026-04-20 15:50 | 44.30718 | 5.58360 | 36945 ft | 427 kts | 208° |
| 2026-04-20 15:50 | 44.25183 | 5.55326 | 36942 ft | 426 kts | 208° |
| 2026-04-20 15:51 | 44.19672 | 5.52315 | 36937 ft | 426 kts | 208° |
| 2026-04-20 15:51 | 44.14178 | 5.49320 | 36934 ft | 426 kts | 208° |
| 2026-04-20 15:52 | 44.08643 | 5.46308 | 36934 ft | 427 kts | 208° |
| 2026-04-20 15:52 | 44.03133 | 5.43318 | 36928 ft | 426 kts | 207° |
| 2026-04-20 15:53 | 43.94838 | 5.38823 | 36924 ft | 426 kts | 208° |
| 2026-04-20 15:53 | 43.89542 | 5.35954 | 36914 ft | 426 kts | 208° |
| 2026-04-20 15:54 | 43.84007 | 5.32967 | 36903 ft | 427 kts | 207° |
| 2026-04-20 15:54 | 43.78487 | 5.29979 | 36892 ft | 428 kts | 207° |
| 2026-04-20 15:55 | 43.72928 | 5.26986 | 36880 ft | 428 kts | 207° |
| 2026-04-20 15:55 | 43.67415 | 5.24026 | 36883 ft | 427 kts | 207° |
| 2026-04-20 15:56 | 43.61874 | 5.21058 | 36889 ft | 428 kts | 207° |
| 2026-04-20 15:56 | 43.56300 | 5.18078 | 36891 ft | 429 kts | 207° |
| 2026-04-20 15:57 | 43.50744 | 5.15117 | 36891 ft | 429 kts | 207° |
| 2026-04-20 15:57 | 43.45190 | 5.12162 | 36890 ft | 429 kts | 207° |
| 2026-04-20 15:58 | 43.39730 | 5.08898 | 36888 ft | 425 kts | 212° |
| 2026-04-20 15:58 | 43.34631 | 5.04874 | 36889 ft | 421 kts | 219° |
| 2026-04-20 15:59 | 43.29821 | 5.00358 | 36886 ft | 420 kts | 220° |
| 2026-04-20 15:59 | 43.25027 | 4.95849 | 36886 ft | 420 kts | 220° |
| 2026-04-20 16:00 | 43.20198 | 4.91318 | 36887 ft | 420 kts | 220° |
| 2026-04-20 16:00 | 43.15371 | 4.86795 | 36891 ft | 420 kts | 220° |
| 2026-04-20 16:01 | 43.10571 | 4.82308 | 36890 ft | 420 kts | 220° |
| 2026-04-20 16:01 | 43.05719 | 4.77859 | 36891 ft | 421 kts | 217° |
| 2026-04-20 16:02 | 43.00648 | 4.73904 | 36890 ft | 423 kts | 215° |
| 2026-04-20 16:02 | 42.95484 | 4.69984 | 36895 ft | 423 kts | 215° |
| 2026-04-20 16:03 | 42.90369 | 4.66108 | 36894 ft | 423 kts | 214° |
| 2026-04-20 16:03 | 42.85235 | 4.62247 | 36901 ft | 423 kts | 214° |
| 2026-04-20 16:04 | 42.80074 | 4.58373 | 36899 ft | 423 kts | 214° |
| 2026-04-20 16:04 | 42.74926 | 4.54506 | 36904 ft | 422 kts | 214° |
| 2026-04-20 16:05 | 42.69783 | 4.50644 | 36903 ft | 423 kts | 214° |
| 2026-04-20 16:05 | 42.64619 | 4.46773 | 36905 ft | 423 kts | 214° |
| 2026-04-20 16:06 | 42.59479 | 4.42926 | 36903 ft | 423 kts | 214° |
| 2026-04-20 16:06 | 42.54325 | 4.39073 | 36906 ft | 423 kts | 214° |
| 2026-04-20 16:07 | 42.49137 | 4.35207 | 36906 ft | 423 kts | 214° |
| 2026-04-20 16:07 | 42.43997 | 4.31361 | 36908 ft | 423 kts | 214° |
| 2026-04-20 16:08 | 42.38828 | 4.27506 | 36906 ft | 424 kts | 214° |
| 2026-04-20 16:08 | 42.33678 | 4.23685 | 36911 ft | 424 kts | 213° |
| 2026-04-20 16:09 | 42.28510 | 4.19862 | 36911 ft | 424 kts | 213° |
| 2026-04-20 16:09 | 42.23333 | 4.16044 | 36908 ft | 424 kts | 213° |
| 2026-04-20 16:10 | 42.18148 | 4.12225 | 36910 ft | 424 kts | 213° |
| 2026-04-20 16:10 | 42.12985 | 4.08422 | 36909 ft | 425 kts | 213° |
| 2026-04-20 16:11 | 42.07803 | 4.04619 | 36911 ft | 425 kts | 213° |
| 2026-04-20 16:11 | 42.02599 | 4.00808 | 36919 ft | 425 kts | 213° |
| 2026-04-20 16:12 | 41.97361 | 3.97104 | 36925 ft | 428 kts | 210° |
| 2026-04-20 16:12 | 41.91815 | 3.94072 | 36930 ft | 433 kts | 204° |
| 2026-04-20 16:13 | 41.85987 | 3.91913 | 36930 ft | 438 kts | 197° |
| 2026-04-20 16:13 | 41.79982 | 3.90485 | 36928 ft | 439 kts | 194° |
| 2026-04-20 16:14 | 41.73978 | 3.89114 | 36932 ft | 438 kts | 194° |
| 2026-04-20 16:14 | 41.67974 | 3.87734 | 36935 ft | 439 kts | 194° |
| 2026-04-20 16:15 | 41.61931 | 3.86346 | 36933 ft | 439 kts | 195° |
| 2026-04-20 16:15 | 41.55906 | 3.84958 | 36926 ft | 439 kts | 195° |
| 2026-04-20 16:16 | 41.49893 | 3.83576 | 36920 ft | 439 kts | 195° |
| 2026-04-20 16:16 | 41.43886 | 3.82198 | 36923 ft | 439 kts | 194° |
| 2026-04-20 16:17 | 41.37867 | 3.80825 | 36924 ft | 439 kts | 194° |
| 2026-04-20 16:17 | 41.31849 | 3.79453 | 36924 ft | 439 kts | 194° |
| 2026-04-20 16:18 | 41.25829 | 3.78085 | 36926 ft | 439 kts | 194° |
| 2026-04-20 16:18 | 41.19807 | 3.76713 | 36930 ft | 439 kts | 195° |
| 2026-04-20 16:19 | 41.13918 | 3.74807 | 36927 ft | 434 kts | 202° |
| 2026-04-20 16:19 | 41.08281 | 3.72079 | 36469 ft | 433 kts | 206° |
| 2026-04-20 16:20 | 41.05484 | 3.70631 | 35985 ft | 429 kts | 206° |
| 2026-04-20 16:20 | 41.02734 | 3.69212 | 35502 ft | 426 kts | 206° |
| 2026-04-20 16:20 | 40.99966 | 3.67786 | 35001 ft | 424 kts | 206° |
| 2026-04-20 16:20 | 40.97230 | 3.66378 | 34426 ft | 423 kts | 206° |
| 2026-04-20 16:21 | 40.94500 | 3.64973 | 33804 ft | 422 kts | 206° |
| 2026-04-20 16:21 | 40.91772 | 3.63572 | 33183 ft | 422 kts | 206° |
| 2026-04-20 16:21 | 40.89048 | 3.62176 | 32526 ft | 422 kts | 206° |
| 2026-04-20 16:21 | 40.86281 | 3.60765 | 31842 ft | 422 kts | 206° |
| 2026-04-20 16:22 | 40.83554 | 3.59376 | 31172 ft | 422 kts | 206° |
| 2026-04-20 16:22 | 40.80817 | 3.57983 | 30500 ft | 422 kts | 206° |
| 2026-04-20 16:22 | 40.78126 | 3.56611 | 29841 ft | 421 kts | 206° |
| 2026-04-20 16:22 | 40.75375 | 3.55208 | 29167 ft | 421 kts | 206° |
| 2026-04-20 16:23 | 40.72662 | 3.53825 | 28502 ft | 420 kts | 206° |
| 2026-04-20 16:23 | 40.69944 | 3.52438 | 27835 ft | 420 kts | 206° |
| 2026-04-20 16:23 | 40.67234 | 3.51059 | 27170 ft | 419 kts | 205° |
| 2026-04-20 16:23 | 40.64527 | 3.49682 | 26512 ft | 418 kts | 205° |
| 2026-04-20 16:24 | 40.61826 | 3.48309 | 25854 ft | 417 kts | 205° |
| 2026-04-20 16:24 | 40.59129 | 3.46939 | 25201 ft | 416 kts | 205° |
| 2026-04-20 16:24 | 40.56426 | 3.45567 | 24543 ft | 415 kts | 205° |
| 2026-04-20 16:24 | 40.53751 | 3.44211 | 23891 ft | 414 kts | 205° |
| 2026-04-20 16:25 | 40.51066 | 3.42850 | 23240 ft | 413 kts | 205° |
| 2026-04-20 16:25 | 40.48424 | 3.41513 | 22607 ft | 412 kts | 205° |
| 2026-04-20 16:25 | 40.45708 | 3.40223 | 21957 ft | 413 kts | 200° |
| 2026-04-20 16:25 | 40.42890 | 3.39500 | 21318 ft | 415 kts | 189° |
| 2026-04-20 16:26 | 40.40019 | 3.39409 | 20690 ft | 416 kts | 182° |
| 2026-04-20 16:26 | 40.37147 | 3.39563 | 20066 ft | 415 kts | 181° |
| 2026-04-20 16:26 | 40.34271 | 3.39752 | 19438 ft | 413 kts | 181° |
| 2026-04-20 16:26 | 40.31421 | 3.39938 | 18808 ft | 410 kts | 181° |
| 2026-04-20 16:27 | 40.28566 | 3.40116 | 18179 ft | 408 kts | 181° |
| 2026-04-20 16:27 | 40.25762 | 3.40282 | 17562 ft | 405 kts | 181° |
| 2026-04-20 16:27 | 40.22961 | 3.40443 | 16942 ft | 403 kts | 181° |
| 2026-04-20 16:27 | 40.20174 | 3.40603 | 16318 ft | 400 kts | 181° |
| 2026-04-20 16:28 | 40.17393 | 3.40760 | 15692 ft | 398 kts | 180° |
| 2026-04-20 16:28 | 40.14646 | 3.40916 | 15069 ft | 395 kts | 180° |
| 2026-04-20 16:28 | 40.11921 | 3.41071 | 14446 ft | 392 kts | 180° |
| 2026-04-20 16:28 | 40.09211 | 3.41224 | 13827 ft | 390 kts | 180° |
| 2026-04-20 16:29 | 40.06494 | 3.41377 | 13206 ft | 387 kts | 180° |
| 2026-04-20 16:29 | 40.03830 | 3.41528 | 12738 ft | 381 kts | 180° |
| 2026-04-20 16:29 | 40.01223 | 3.41665 | 12299 ft | 374 kts | 182° |
| 2026-04-20 16:29 | 39.98693 | 3.41158 | 11713 ft | 366 kts | 204° |
| 2026-04-20 16:30 | 39.96636 | 3.39394 | 11149 ft | 348 kts | 226° |
| 2026-04-20 16:30 | 39.94967 | 3.37209 | 10582 ft | 333 kts | 227° |
| 2026-04-20 16:30 | 39.93355 | 3.35152 | 10019 ft | 321 kts | 226° |
| 2026-04-20 16:30 | 39.91745 | 3.33158 | 9447 ft | 311 kts | 225° |
| 2026-04-20 16:31 | 39.90194 | 3.31276 | 8879 ft | 302 kts | 224° |
| 2026-04-20 16:31 | 39.88658 | 3.29453 | 8306 ft | 294 kts | 223° |
| 2026-04-20 16:31 | 39.87156 | 3.27697 | 7797 ft | 292 kts | 223° |
| 2026-04-20 16:31 | 39.85640 | 3.25932 | 7280 ft | 294 kts | 223° |
| 2026-04-20 16:32 | 39.84110 | 3.24153 | 6763 ft | 296 kts | 223° |
| 2026-04-20 16:32 | 39.82578 | 3.22372 | 6274 ft | 296 kts | 223° |
| 2026-04-20 16:32 | 39.81062 | 3.20612 | 5885 ft | 284 kts | 223° |
| 2026-04-20 16:32 | 39.79626 | 3.18945 | 5541 ft | 274 kts | 222° |
| 2026-04-20 16:33 | 39.78221 | 3.17316 | 5274 ft | 272 kts | 222° |
| 2026-04-20 16:33 | 39.76810 | 3.15681 | 5018 ft | 271 kts | 222° |
| 2026-04-20 16:33 | 39.75406 | 3.14055 | 4802 ft | 270 kts | 222° |
| 2026-04-20 16:33 | 39.74019 | 3.12447 | 4607 ft | 269 kts | 222° |
| 2026-04-20 16:34 | 39.72607 | 3.10812 | 4406 ft | 268 kts | 222° |
| 2026-04-20 16:34 | 39.71259 | 3.09173 | 4350 ft | 267 kts | 228° |
| 2026-04-20 16:34 | 39.70129 | 3.07258 | 4350 ft | 267 kts | 238° |
| 2026-04-20 16:34 | 39.69193 | 3.05184 | 4351 ft | 268 kts | 241° |
| 2026-04-20 16:35 | 39.68271 | 3.03063 | 4352 ft | 269 kts | 240° |
| 2026-04-20 16:35 | 39.67343 | 3.01006 | 4248 ft | 262 kts | 239° |
| 2026-04-20 16:35 | 39.66409 | 2.99010 | 3962 ft | 258 kts | 238° |
| 2026-04-20 16:35 | 39.65469 | 2.97041 | 3620 ft | 251 kts | 237° |
| 2026-04-20 16:36 | 39.64570 | 2.95164 | 3296 ft | 241 kts | 237° |
| 2026-04-20 16:36 | 39.63700 | 2.93348 | 2989 ft | 235 kts | 237° |
| 2026-04-20 16:36 | 39.62846 | 2.91561 | 2686 ft | 230 kts | 237° |
| 2026-04-20 16:36 | 39.62032 | 2.89850 | 2383 ft | 214 kts | 237° |
| 2026-04-20 16:37 | 39.61288 | 2.88287 | 2180 ft | 197 kts | 237° |
| 2026-04-20 16:37 | 39.60597 | 2.86831 | 1927 ft | 182 kts | 237° |
| 2026-04-20 16:37 | 39.59968 | 2.85508 | 1691 ft | 165 kts | 237° |
| 2026-04-20 16:37 | 39.59393 | 2.84297 | 1452 ft | 151 kts | 237° |
| 2026-04-20 16:38 | 39.58862 | 2.83184 | 1233 ft | 138 kts | 237° |
| 2026-04-20 16:38 | 39.58360 | 2.82127 | 1078 ft | 136 kts | 238° |
| 2026-04-20 16:38 | 39.57872 | 2.81084 | 924 ft | 135 kts | 237° |
| 2026-04-20 16:38 | 39.57378 | 2.80044 | 757 ft | 134 kts | 237° |
| 2026-04-20 16:39 | 39.56894 | 2.79027 | 574 ft | 132 kts | 238° |
| 2026-04-20 16:39 | 39.56420 | 2.78017 | 391 ft | 131 kts | 237° |
| 2026-04-20 16:39 | 39.55946 | 2.77023 | 220 ft | 129 kts | 237° |
| 2026-04-20 16:39 | 39.55479 | 2.76033 | 79 ft | 128 kts | 237° |
| 2026-04-20 16:40 | 39.55043 | 2.75113 | 44 ft | 102 kts | 238° |
| 2026-04-20 16:40 | 39.54769 | 2.74529 | 43 ft | 57 kts | 239° |
| 2026-04-20 16:40 | 39.54602 | 2.74158 | 43 ft | 40 kts | 245° |
| 2026-04-20 16:40 | 39.54550 | 2.73897 | 43 ft | 23 kts | 268° |
| 2026-04-20 16:41 | 39.54551 | 2.73775 | 43 ft | 4 kts | 283° |
| 2026-04-20 16:41 | 39.54555 | 2.73752 | 43 ft | 1 kts | 290° |
| 2026-04-20 16:41 | 39.54560 | 2.73734 | 43 ft | 2 kts | 289° |
| 2026-04-20 16:41 | 39.54567 | 2.73700 | 43 ft | 5 kts | 281° |
| 2026-04-20 16:42 | 39.54589 | 2.73640 | 43 ft | 10 kts | 320° |
| 2026-04-20 16:42 | 39.54649 | 2.73612 | 43 ft | 9 kts | 347° |
| 2026-04-20 16:42 | 39.54713 | 2.73572 | 43 ft | 10 kts | 327° |
| 2026-04-20 16:42 | 39.54760 | 2.73537 | 43 ft | 4 kts | 352° |
| 2026-04-20 16:43 | 39.54775 | 2.73542 | 43 ft | 0 kts | 27° |
| 2026-04-20 16:43 | 39.54777 | 2.73552 | 43 ft | 3 kts | 80° |
| 2026-04-20 16:43 | 39.54788 | 2.73585 | 43 ft | 3 kts | 59° |
| 2026-04-20 16:44 | 39.54793 | 2.73595 | 43 ft | 0 kts | 59° |